Cape Race, Canada
Current Conditions -  °F | °C
As of 7:04 AM on Tuesday 21 Oct 2014 (Local Time) from CYYT Reporting Station
Rain Showers Rain Showers  
Wind Chill: 37°   Ceiling: 2400
Heat Index: 45°   Visibility: 12mi
Dew Point: 41°   Wind: 20mph
Humidity: 87%   Direction: 250°WSW
Pressure: 29.88"   Gusts: 31mph
Location:  46.66°N, 53.09°W
Report Text: CYYT 210904Z 25017G27KT 12SM -SHRA BKN024 07/05 A2988 RMK SC7 PRESRR SLP121
Loading
Personal Weather Stations






























Interactive Weather Map
Tropical Storm Tracking
New forecast layout! Learn more

10-Day Weather Forecast

Advertisements
Track Severe Weather on mobile